createdAt,value
2023-04-17T00:00:02.257Z,89.2
2023-04-17T00:15:02.887Z,89.5
2023-04-17T00:30:02.155Z,90.0
2023-04-17T00:45:02.578Z,90.2
2023-04-17T01:00:03.019Z,90.4
2023-04-17T01:15:02.438Z,90.6
2023-04-17T01:30:02.973Z,90.7
2023-04-17T01:45:02.329Z,91.1
2023-04-17T02:00:02.968Z,91.5
2023-04-17T02:15:02.203Z,91.8
2023-04-17T02:30:02.618Z,92.0
2023-04-17T02:45:03.062Z,92.2
2023-04-17T03:00:02.493Z,92.6
2023-04-17T03:15:02.980Z,92.8
2023-04-17T03:30:02.348Z,93.1
2023-04-17T03:45:03.005Z,93.1
2023-04-17T04:00:02.288Z,93.0
2023-04-17T04:15:02.712Z,93.1
2023-04-17T04:30:02.237Z,93.2
2023-04-17T04:45:02.587Z,93.3
2023-04-17T05:00:03.057Z,93.5
2023-04-17T05:15:02.487Z,93.9
2023-04-17T05:30:03.015Z,94.1
2023-04-17T05:45:02.377Z,94.3
2023-04-17T06:00:03.028Z,94.2
2023-04-17T06:15:02.323Z,94.0
2023-04-17T06:30:02.689Z,93.3
2023-04-17T06:45:03.130Z,92.2
2023-04-17T07:00:02.554Z,90.9
2023-04-17T07:15:03.097Z,88.2
2023-04-17T07:30:02.422Z,86.3
2023-04-17T07:45:03.012Z,83.5
2023-04-17T08:00:02.296Z,79.4
2023-04-17T08:15:02.771Z,74.5
2023-04-17T08:30:02.182Z,68.2
2023-04-17T08:45:02.592Z,59.0
2023-04-17T09:00:03.088Z,59.5
2023-04-17T09:15:02.520Z,57.0
2023-04-17T09:30:03.080Z,54.8
2023-04-17T09:45:02.359Z,54.3
2023-04-17T10:00:02.975Z,54.8
2023-04-17T10:15:02.269Z,48.4
2023-04-17T10:30:02.693Z,49.1
2023-04-17T10:45:03.205Z,45.1
2023-04-17T11:00:02.595Z,47.4
2023-04-17T11:15:03.101Z,46.9
2023-04-17T11:30:02.456Z,41.4
2023-04-17T11:45:04.563Z,41.6
2023-04-17T12:00:02.326Z,41.4
2023-04-17T12:15:02.796Z,43.3
2023-04-17T12:30:02.209Z,42.0
2023-04-17T12:45:02.635Z,44.4
2023-04-17T13:00:03.113Z,43.1
2023-04-17T13:15:02.511Z,40.4
2023-04-17T13:30:03.095Z,41.3
2023-04-17T13:45:02.411Z,42.0
2023-04-17T14:00:02.836Z,44.7
2023-04-17T14:15:03.316Z,44.7
2023-04-17T14:30:02.796Z,41.5
2023-04-17T14:45:02.194Z,40.6
2023-04-17T15:00:02.600Z,38.0
2023-04-17T15:15:03.116Z,40.1
2023-04-17T15:30:02.455Z,38.7
2023-04-17T15:45:03.197Z,43.6
2023-04-17T16:00:02.309Z,44.4
2023-04-17T16:15:02.833Z,48.1
2023-04-17T16:30:02.259Z,50.2
2023-04-17T16:45:02.675Z,51.2
2023-04-17T17:00:03.141Z,51.4
2023-04-17T17:15:02.505Z,48.5
2023-04-17T17:30:03.152Z,48.1
2023-04-17T17:45:02.388Z,51.9
2023-04-17T18:00:02.881Z,52.9
2023-04-17T18:15:02.257Z,51.5
2023-04-17T18:30:02.719Z,52.5
2023-04-17T18:45:03.171Z,51.6
2023-04-17T19:00:02.585Z,51.6
2023-04-17T19:15:03.151Z,49.0
2023-04-17T19:30:02.466Z,50.1
2023-04-17T19:45:03.084Z,50.4
2023-04-17T20:00:02.329Z,52.1
2023-04-17T20:15:02.765Z,55.1
2023-04-17T20:30:02.189Z,57.6
2023-04-17T20:45:02.620Z,60.1
2023-04-17T21:00:03.167Z,63.5
2023-04-17T21:15:02.516Z,66.0
2023-04-17T21:30:03.175Z,68.3
2023-04-17T21:45:02.411Z,70.4
2023-04-17T22:00:03.757Z,71.7
2023-04-17T22:15:03.311Z,72.8
2023-04-17T22:30:02.728Z,73.9
2023-04-17T22:45:03.214Z,75.3
2023-04-17T23:00:02.581Z,77.0
2023-04-17T23:15:03.193Z,78.2
2023-04-17T23:30:02.442Z,78.3
2023-04-17T23:45:02.896Z,77.7
